Sardis, Tennessee
Current Conditions -  °F | °C
As of 6:35 AM on Sunday 23 Nov 2014 (Local Time) from KPVE Reporting Station
Overcast Overcast  
Wind Chill: 55°   Ceiling: 1700
Heat Index: 55°   Visibility: 10mi
Dew Point: 52°   Wind: 10mph
Humidity: 88%   Direction: 140°SE
Pressure: 29.81"   Gusts: NA
Location:  35.44°N, 88.29°W
Report Text: KPVE 231235Z AUTO 14009KT 10SM OVC017 13/11 A2981 RMK
Loading
Personal Weather Stations






























Interactive Weather Map New forecast layout! Learn more

10-Day Weather Forecast

Advertisements
Track Severe Weather on mobile